Wilson Lahn — 8PUO — position and weather

sailwx.info

Track history (hours):
 
Tides and Currents Weather Stations Pressure Air Temp Water Temp Dewpoint Dewpoint Depression Visibility Wind Speed Wind Dir Waves Ship Positions

Wilson Lahn

Last reported at 2015-Sep-04 08:03 UTC. Time now 2015-Sep-04 12:28 UTC.
Position N 54°48' E 014°03'.

Length 83 m; draft 3.5 m.

Type: Cargo ship. MMSI: 314259000.

Date/timePositionNaut miles runAvg speedWind from/ knotsBaromVisibWave heightAir tempDewpointWater temp
2015-Sep-04 08:03N 54°48' E 014°03'611.8
2015-Sep-04 07:33N 54°49' E 014°13'1211.9
2015-Sep-04 06:33N 54°50' E 014°34'1212.0
2015-Sep-04 05:33N 54°52' E 014°54'1211.9
2015-Sep-04 04:33N 54°54' E 015°15'7212.0
2015-Sep-03 22:33N 54°59' E 017°20'1212.1
2015-Sep-03 21:33N 54°58' E 017°41'1412.2
2015-Sep-03 20:26N 54°57' E 018°05'1112.3
2015-Sep-03 19:34N 54°57' E 018°23'1212.0
2015-Sep-03 18:34N 54°53' E 018°43'1212.0
2015-Sep-03 17:34N 54°45' E 018°58'1111.4
2015-Sep-03 16:34N 54°34' E 018°51'1010.2
2015-Sep-03 15:34N 54°32' E 018°34'2 1.8
2015-Sep-03 14:31N 54°32' E 018°31'0 0.0
2015-Sep-03 13:31N 54°32' E 018°31'0 0.0
2015-Sep-03 12:31N 54°32' E 018°31'0 0.0
2015-Sep-03 11:31N 54°32' E 018°31'0 0.0
2015-Sep-03 10:31N 54°32' E 018°31'0 0.5
2015-Sep-03 09:32N 54°33' E 018°31'0 0.0
2015-Sep-03 08:32N 54°33' E 018°31'0 0.0
2015-Sep-03 07:32N 54°33' E 018°31'0 0.0
2015-Sep-03 06:32N 54°33' E 018°31'0 0.0
2015-Sep-03 05:32N 54°33' E 018°31'1 1.4
2015-Sep-03 04:34N 54°32' E 018°33'7 7.0
2015-Sep-03 03:33N 54°32' E 018°45'6 6.3
2015-Sep-03 02:33N 54°36' E 018°53'7 7.0
2015-Sep-03 01:33N 54°43' E 018°57'6 6.2
2015-Sep-03 00:33N 54°48' E 018°52'7 7.1
2015-Sep-02 23:33N 54°53' E 018°42'7 6.6
2015-Sep-02 22:33N 54°57' E 018°33'7 6.8
2015-Sep-02 21:31N 54°57' E 018°21'94 9.2
2015-Sep-02 11:13N 54°55' E 015°36'910.0
2015-Sep-02 10:20N 54°55' E 015°21'810.0
2015-Sep-02 09:34N 54°55' E 015°07'1010.0
2015-Sep-02 08:33N 54°55' E 014°50'10 9.5
2015-Sep-02 07:33N 54°58' E 014°34'1110.6
2015-Sep-02 06:34N 55°05' E 014°19'1010.4
2015-Sep-02 05:33N 55°10' E 014°04'10 9.7
2015-Sep-02 04:33N 55°11' E 013°47'11 9.7
2015-Sep-02 03:29N 55°12' E 013°28'9 9.9
2015-Sep-02 02:33N 55°13' E 013°12'10 9.9
2015-Sep-02 01:33N 55°14' E 012°55'1010.0
2015-Sep-02 00:33N 55°18' E 012°39'9 9.1
2015-Sep-01 23:33N 55°27' E 012°40'9 9.5
2015-Sep-01 22:33N 55°36' E 012°42'10 9.6
2015-Sep-01 21:33N 55°46' E 012°41'10 9.7
2015-Sep-01 20:34N 55°55' E 012°38'9 8.6
2015-Sep-01 19:34N 56°04' E 012°37'9 9.4
2015-Sep-01 18:33N 56°10' E 012°24'9 9.0
2015-Sep-01 17:33N 56°11' E 012°08'10 9.3
2015-Sep-01 16:30N 56°10' E 011°50'54 9.0
2015-Sep-01 10:33N 56°09' E 010°14'0 0.0
2015-Sep-01 09:23N 56°09' E 010°14'0 0.0
2015-Sep-01 08:29N 56°09' E 010°14'0 0.0
2015-Sep-01 07:23N 56°09' E 010°14'0 0.0
2015-Sep-01 06:32N 56°09' E 010°14'0 0.0
2015-Sep-01 05:32N 56°09' E 010°14'2 2.1
2015-Sep-01 04:33N 56°09' E 010°18'5 5.3
2015-Sep-01 03:33N 56°06' E 010°26'6 5.3
2015-Sep-01 02:28N 56°04' E 010°35'42 5.3
2015-Aug-31 18:31N 56°10' E 011°50'6 6.3
2015-Aug-31 17:33N 56°11' E 012°01'7 6.8
2015-Aug-31 16:33N 56°11' E 012°13'7 7.2
2015-Aug-31 15:33N 56°10' E 012°26'9 9.2
2015-Aug-31 14:33N 56°04' E 012°38'8 8.5
2015-Aug-31 13:33N 55°56' E 012°44'8 8.3
2015-Aug-31 12:34N 55°48' E 012°43'9 8.6
2015-Aug-31 11:33N 55°39' E 012°42'9 8.9
2015-Aug-31 10:33N 55°30' E 012°43'9 9.2
2015-Aug-31 09:33N 55°21' E 012°41'8 8.4
2015-Aug-31 08:33N 55°16' E 012°53'8 8.3
2015-Aug-31 07:33N 55°11' E 013°04'1010.3
2015-Aug-31 06:33N 55°02' E 013°14'1010.4
2015-Aug-31 05:33N 54°54' E 013°25'1010.2
2015-Aug-31 04:33N 54°46' E 013°35'1010.5
2015-Aug-31 03:33N 54°36' E 013°43'1110.6
2015-Aug-31 02:33N 54°27' E 013°52'1010.4
2015-Aug-31 01:33N 54°19' E 014°02'10 9.5
2015-Aug-31 00:33N 54°11' E 014°13'1010.1
2015-Aug-30 23:33N 54°01' E 014°16'8 7.9
2015-Aug-30 22:33N 53°53' E 014°16'9 9.3
2015-Aug-30 21:33N 53°45' E 014°24'1110.7
2015-Aug-30 20:33N 53°37' E 014°35'3 2.5
2015-Aug-30 19:33N 53°34' E 014°34'0 0.0
2015-Aug-30 18:34N 53°34' E 014°34'0 0.0
2015-Aug-30 17:31N 53°34' E 014°34'0 0.0
2015-Aug-30 16:31N 53°34' E 014°34'0 0.0
2015-Aug-30 15:31N 53°34' E 014°34'0 0.0
2015-Aug-30 14:28N 53°34' E 014°34'0 0.0
2015-Aug-30 13:28N 53°34' E 014°34'0 0.0
2015-Aug-30 12:28N 53°34' E 014°34'0 0.0
2015-Aug-30 11:31N 53°34' E 014°34'0 0.0
2015-Aug-30 10:31N 53°34' E 014°34'0 0.0
2015-Aug-30 09:31N 53°34' E 014°34'0 0.0
2015-Aug-30 08:31N 53°34' E 014°34'0 0.0
2015-Aug-30 07:31N 53°34' E 014°34'3 3.1
2015-Aug-30 06:34N 53°37' E 014°35'1111.0
2015-Aug-30 05:34N 53°46' E 014°24'9 9.4
2015-Aug-30 04:34N 53°54' E 014°15'7 6.9
2015-Aug-30 03:34N 54°01' E 014°15'10 9.9
2015-Aug-30 02:33N 54°11' E 014°11'9 9.4
2015-Aug-30 01:33N 54°18' E 014°01'10 9.6
2015-Aug-30 00:34N 54°25' E 013°51'10 9.9
2015-Aug-29 23:34N 54°34' E 013°43'1010.1
2015-Aug-29 22:34N 54°43' E 013°35'1010.2
2015-Aug-29 21:34N 54°52' E 013°25'1010.1
2015-Aug-29 20:33N 55°01' E 013°16'1010.3
2015-Aug-29 19:34N 55°08' E 013°04'1010.2
2015-Aug-29 18:34N 55°15' E 012°51'9 8.8
2015-Aug-29 17:34N 55°19' E 012°37'9 9.4
2015-Aug-29 16:33N 55°29' E 012°41'1010.2
2015-Aug-29 15:34N 55°39' E 012°41'1110.7
2015-Aug-29 14:33N 55°49' E 012°40'1110.5
2015-Aug-29 13:34N 55°60' E 012°37'1010.3
2015-Aug-29 12:34N 56°08' E 012°27'1110.9
2015-Aug-29 11:33N 56°15' E 012°11'2010.0
2015-Aug-29 09:33N 56°33' E 011°57'1010.2
2015-Aug-29 08:34N 56°43' E 011°52'1010.0
2015-Aug-29 07:33N 56°53' E 011°47'1111.1
2015-Aug-29 06:34N 57°03' E 011°41'1111.3
2015-Aug-29 05:33N 57°14' E 011°33'1110.7
2015-Aug-29 04:34N 57°24' E 011°27'1010.4
2015-Aug-29 03:33N 57°32' E 011°15'1110.6
2015-Aug-29 02:33N 57°39' E 010°60'1110.8
2015-Aug-29 01:32N 57°46' E 010°45'1211.9
2015-Aug-29 00:33N 57°48' E 010°23'13510.4
2015-Aug-28 11:34N 58°14' E 006°13'1010.3
2015-Aug-28 10:33N 58°21' E 005°58'9 9.4
2015-Aug-28 09:33N 58°27' E 005°44'28 9.4
2015-Aug-28 06:33N 58°51' E 005°16'9 8.9
2015-Aug-28 05:33N 58°60' E 005°14'8 7.7
2015-Aug-28 04:34N 59°07' E 005°20'1010.3
2015-Aug-28 03:33N 59°17' E 005°20'9 9.4
2015-Aug-28 02:33N 59°26' E 005°14'1010.1
2015-Aug-28 01:33N 59°36' E 005°16'1010.0
2015-Aug-28 00:33N 59°44' E 005°29'1010.0
2015-Aug-27 23:33N 59°52' E 005°41'7 0.2
2015-Aug-26 17:33N 59°58' E 005°49'1312.7
2015-Aug-26 16:33N 59°47' E 005°34'3 3.0
2015-Aug-26 15:33N 59°46' E 005°29'0 0.0
2015-Aug-26 14:33N 59°46' E 005°29'0 0.0
2015-Aug-26 13:33N 59°46' E 005°29'0 0.0
2015-Aug-26 12:33N 59°46' E 005°29'0 0.0
2015-Aug-26 11:33N 59°46' E 005°29'0 0.0
2015-Aug-26 10:33N 59°46' E 005°29'0 0.0
2015-Aug-26 09:33N 59°46' E 005°29'0 0.0
2015-Aug-26 08:33N 59°46' E 005°29'0 0.0
2015-Aug-26 07:33N 59°46' E 005°29'0 0.0
2015-Aug-26 06:33N 59°46' E 005°29'0 0.0
2015-Aug-26 05:33N 59°46' E 005°29'0 0.0
2015-Aug-26 04:33N 59°46' E 005°29'0 0.0
2015-Aug-26 03:33N 59°46' E 005°29'0 0.0
2015-Aug-26 02:33N 59°46' E 005°29'0 0.0
2015-Aug-26 01:33N 59°46' E 005°29'0 0.0
2015-Aug-26 00:30N 59°46' E 005°29'0 0.0
2015-Aug-25 23:33N 59°46' E 005°29'0 0.0
2015-Aug-25 22:33N 59°46' E 005°29'0 0.0
2015-Aug-25 21:33N 59°46' E 005°29'0 0.0
2015-Aug-25 20:33N 59°46' E 005°29'0 0.0
2015-Aug-25 19:33N 59°46' E 005°29'0 0.2
2015-Aug-25 18:33N 59°46' E 005°30'0 0.0
2015-Aug-25 17:33N 59°46' E 005°30'0 0.0
2015-Aug-25 16:33N 59°46' E 005°30'0 0.0
2015-Aug-25 15:33N 59°46' E 005°30'0 0.0
2015-Aug-25 14:33N 59°46' E 005°30'0 0.0
2015-Aug-25 13:33N 59°46' E 005°30'0 0.0
2015-Aug-25 12:33N 59°46' E 005°30'0 0.0
2015-Aug-25 11:33N 59°46' E 005°30'0 0.0
2015-Aug-25 10:33N 59°46' E 005°30'0 0.0
2015-Aug-25 09:33N 59°46' E 005°30'0 0.0
2015-Aug-25 08:33N 59°46' E 005°30'  
Track history (hours):
 
Tides and Currents Weather Stations Pressure Air Temp Water Temp Dewpoint Dewpoint Depression Visibility Wind Speed Wind Dir Waves Ship Positions

Wilson Lahn

Last reported at 2015-Sep-04 08:03 UTC. Time now 2015-Sep-04 12:28 UTC.
Position N 54°48' E 014°03'.

Length 83 m; draft 3.5 m.

Type: Cargo ship. MMSI: 314259000.

Date/timePositionNaut miles runAvg speedWind from/ knotsBaromVisibWave heightAir tempDewpointWater temp
2015-Sep-04 08:03N 54°48' E 014°03'611.8
2015-Sep-04 07:33N 54°49' E 014°13'1211.9
2015-Sep-04 06:33N 54°50' E 014°34'1212.0
2015-Sep-04 05:33N 54°52' E 014°54'1211.9
2015-Sep-04 04:33N 54°54' E 015°15'7212.0
2015-Sep-03 22:33N 54°59' E 017°20'1212.1
2015-Sep-03 21:33N 54°58' E 017°41'1412.2
2015-Sep-03 20:26N 54°57' E 018°05'1112.3
2015-Sep-03 19:34N 54°57' E 018°23'1212.0
2015-Sep-03 18:34N 54°53' E 018°43'1212.0
2015-Sep-03 17:34N 54°45' E 018°58'1111.4
2015-Sep-03 16:34N 54°34' E 018°51'1010.2
2015-Sep-03 15:34N 54°32' E 018°34'2 1.8
2015-Sep-03 14:31N 54°32' E 018°31'0 0.0
2015-Sep-03 13:31N 54°32' E 018°31'0 0.0
2015-Sep-03 12:31N 54°32' E 018°31'0 0.0
2015-Sep-03 11:31N 54°32' E 018°31'0 0.0
2015-Sep-03 10:31N 54°32' E 018°31'0 0.5
2015-Sep-03 09:32N 54°33' E 018°31'0 0.0
2015-Sep-03 08:32N 54°33' E 018°31'0 0.0
2015-Sep-03 07:32N 54°33' E 018°31'0 0.0
2015-Sep-03 06:32N 54°33' E 018°31'0 0.0
2015-Sep-03 05:32N 54°33' E 018°31'1 1.4
2015-Sep-03 04:34N 54°32' E 018°33'7 7.0
2015-Sep-03 03:33N 54°32' E 018°45'6 6.3
2015-Sep-03 02:33N 54°36' E 018°53'7 7.0
2015-Sep-03 01:33N 54°43' E 018°57'6 6.2
2015-Sep-03 00:33N 54°48' E 018°52'7 7.1
2015-Sep-02 23:33N 54°53' E 018°42'7 6.6
2015-Sep-02 22:33N 54°57' E 018°33'7 6.8
2015-Sep-02 21:31N 54°57' E 018°21'94 9.2
2015-Sep-02 11:13N 54°55' E 015°36'910.0
2015-Sep-02 10:20N 54°55' E 015°21'810.0
2015-Sep-02 09:34N 54°55' E 015°07'1010.0
2015-Sep-02 08:33N 54°55' E 014°50'10 9.5
2015-Sep-02 07:33N 54°58' E 014°34'1110.6
2015-Sep-02 06:34N 55°05' E 014°19'1010.4
2015-Sep-02 05:33N 55°10' E 014°04'10 9.7
2015-Sep-02 04:33N 55°11' E 013°47'11 9.7
2015-Sep-02 03:29N 55°12' E 013°28'9 9.9
2015-Sep-02 02:33N 55°13' E 013°12'10 9.9
2015-Sep-02 01:33N 55°14' E 012°55'1010.0
2015-Sep-02 00:33N 55°18' E 012°39'9 9.1
2015-Sep-01 23:33N 55°27' E 012°40'9 9.5
2015-Sep-01 22:33N 55°36' E 012°42'10 9.6
2015-Sep-01 21:33N 55°46' E 012°41'10 9.7
2015-Sep-01 20:34N 55°55' E 012°38'9 8.6
2015-Sep-01 19:34N 56°04' E 012°37'9 9.4
2015-Sep-01 18:33N 56°10' E 012°24'9 9.0
2015-Sep-01 17:33N 56°11' E 012°08'10 9.3
2015-Sep-01 16:30N 56°10' E 011°50'54 9.0
2015-Sep-01 10:33N 56°09' E 010°14'0 0.0
2015-Sep-01 09:23N 56°09' E 010°14'0 0.0
2015-Sep-01 08:29N 56°09' E 010°14'0 0.0
2015-Sep-01 07:23N 56°09' E 010°14'0 0.0
2015-Sep-01 06:32N 56°09' E 010°14'0 0.0
2015-Sep-01 05:32N 56°09' E 010°14'2 2.1
2015-Sep-01 04:33N 56°09' E 010°18'5 5.3
2015-Sep-01 03:33N 56°06' E 010°26'6 5.3
2015-Sep-01 02:28N 56°04' E 010°35'42 5.3
2015-Aug-31 18:31N 56°10' E 011°50'6 6.3
2015-Aug-31 17:33N 56°11' E 012°01'7 6.8
2015-Aug-31 16:33N 56°11' E 012°13'7 7.2
2015-Aug-31 15:33N 56°10' E 012°26'9 9.2
2015-Aug-31 14:33N 56°04' E 012°38'8 8.5
2015-Aug-31 13:33N 55°56' E 012°44'8 8.3
2015-Aug-31 12:34N 55°48' E 012°43'9 8.6
2015-Aug-31 11:33N 55°39' E 012°42'9 8.9
2015-Aug-31 10:33N 55°30' E 012°43'9 9.2
2015-Aug-31 09:33N 55°21' E 012°41'8 8.4
2015-Aug-31 08:33N 55°16' E 012°53'8 8.3
2015-Aug-31 07:33N 55°11' E 013°04'1010.3
2015-Aug-31 06:33N 55°02' E 013°14'1010.4
2015-Aug-31 05:33N 54°54' E 013°25'1010.2
2015-Aug-31 04:33N 54°46' E 013°35'1010.5
2015-Aug-31 03:33N 54°36' E 013°43'1110.6
2015-Aug-31 02:33N 54°27' E 013°52'1010.4
2015-Aug-31 01:33N 54°19' E 014°02'10 9.5
2015-Aug-31 00:33N 54°11' E 014°13'1010.1
2015-Aug-30 23:33N 54°01' E 014°16'8 7.9
2015-Aug-30 22:33N 53°53' E 014°16'9 9.3
2015-Aug-30 21:33N 53°45' E 014°24'1110.7
2015-Aug-30 20:33N 53°37' E 014°35'3 2.5
2015-Aug-30 19:33N 53°34' E 014°34'0 0.0
2015-Aug-30 18:34N 53°34' E 014°34'0 0.0
2015-Aug-30 17:31N 53°34' E 014°34'0 0.0
2015-Aug-30 16:31N 53°34' E 014°34'0 0.0
2015-Aug-30 15:31N 53°34' E 014°34'0 0.0
2015-Aug-30 14:28N 53°34' E 014°34'0 0.0
2015-Aug-30 13:28N 53°34' E 014°34'0 0.0
2015-Aug-30 12:28N 53°34' E 014°34'0 0.0
2015-Aug-30 11:31N 53°34' E 014°34'0 0.0
2015-Aug-30 10:31N 53°34' E 014°34'0 0.0
2015-Aug-30 09:31N 53°34' E 014°34'0 0.0
2015-Aug-30 08:31N 53°34' E 014°34'0 0.0
2015-Aug-30 07:31N 53°34' E 014°34'3 3.1
2015-Aug-30 06:34N 53°37' E 014°35'1111.0
2015-Aug-30 05:34N 53°46' E 014°24'9 9.4
2015-Aug-30 04:34N 53°54' E 014°15'7 6.9
2015-Aug-30 03:34N 54°01' E 014°15'10 9.9
2015-Aug-30 02:33N 54°11' E 014°11'9 9.4
2015-Aug-30 01:33N 54°18' E 014°01'10 9.6
2015-Aug-30 00:34N 54°25' E 013°51'10 9.9
2015-Aug-29 23:34N 54°34' E 013°43'1010.1
2015-Aug-29 22:34N 54°43' E 013°35'1010.2
2015-Aug-29 21:34N 54°52' E 013°25'1010.1
2015-Aug-29 20:33N 55°01' E 013°16'1010.3
2015-Aug-29 19:34N 55°08' E 013°04'1010.2
2015-Aug-29 18:34N 55°15' E 012°51'9 8.8
2015-Aug-29 17:34N 55°19' E 012°37'9 9.4
2015-Aug-29 16:33N 55°29' E 012°41'1010.2
2015-Aug-29 15:34N 55°39' E 012°41'1110.7
2015-Aug-29 14:33N 55°49' E 012°40'1110.5
2015-Aug-29 13:34N 55°60' E 012°37'1010.3
2015-Aug-29 12:34N 56°08' E 012°27'1110.9
2015-Aug-29 11:33N 56°15' E 012°11'2010.0
2015-Aug-29 09:33N 56°33' E 011°57'1010.2
2015-Aug-29 08:34N 56°43' E 011°52'1010.0
2015-Aug-29 07:33N 56°53' E 011°47'1111.1
2015-Aug-29 06:34N 57°03' E 011°41'1111.3
2015-Aug-29 05:33N 57°14' E 011°33'1110.7
2015-Aug-29 04:34N 57°24' E 011°27'1010.4
2015-Aug-29 03:33N 57°32' E 011°15'1110.6
2015-Aug-29 02:33N 57°39' E 010°60'1110.8
2015-Aug-29 01:32N 57°46' E 010°45'1211.9
2015-Aug-29 00:33N 57°48' E 010°23'13510.4
2015-Aug-28 11:34N 58°14' E 006°13'1010.3
2015-Aug-28 10:33N 58°21' E 005°58'9 9.4
2015-Aug-28 09:33N 58°27' E 005°44'28 9.4
2015-Aug-28 06:33N 58°51' E 005°16'9 8.9
2015-Aug-28 05:33N 58°60' E 005°14'8 7.7
2015-Aug-28 04:34N 59°07' E 005°20'1010.3
2015-Aug-28 03:33N 59°17' E 005°20'9 9.4
2015-Aug-28 02:33N 59°26' E 005°14'1010.1
2015-Aug-28 01:33N 59°36' E 005°16'1010.0
2015-Aug-28 00:33N 59°44' E 005°29'1010.0
2015-Aug-27 23:33N 59°52' E 005°41'7 0.2
2015-Aug-26 17:33N 59°58' E 005°49'1312.7
2015-Aug-26 16:33N 59°47' E 005°34'3 3.0
2015-Aug-26 15:33N 59°46' E 005°29'0 0.0
2015-Aug-26 14:33N 59°46' E 005°29'0 0.0
2015-Aug-26 13:33N 59°46' E 005°29'0 0.0
2015-Aug-26 12:33N 59°46' E 005°29'0 0.0
2015-Aug-26 11:33N 59°46' E 005°29'0 0.0
2015-Aug-26 10:33N 59°46' E 005°29'0 0.0
2015-Aug-26 09:33N 59°46' E 005°29'0 0.0
2015-Aug-26 08:33N 59°46' E 005°29'0 0.0
2015-Aug-26 07:33N 59°46' E 005°29'0 0.0
2015-Aug-26 06:33N 59°46' E 005°29'0 0.0
2015-Aug-26 05:33N 59°46' E 005°29'0 0.0
2015-Aug-26 04:33N 59°46' E 005°29'0 0.0
2015-Aug-26 03:33N 59°46' E 005°29'0 0.0
2015-Aug-26 02:33N 59°46' E 005°29'0 0.0
2015-Aug-26 01:33N 59°46' E 005°29'0 0.0
2015-Aug-26 00:30N 59°46' E 005°29'0 0.0
2015-Aug-25 23:33N 59°46' E 005°29'0 0.0
2015-Aug-25 22:33N 59°46' E 005°29'0 0.0
2015-Aug-25 21:33N 59°46' E 005°29'0 0.0
2015-Aug-25 20:33N 59°46' E 005°29'0 0.0
2015-Aug-25 19:33N 59°46' E 005°29'0 0.2
2015-Aug-25 18:33N 59°46' E 005°30'0 0.0
2015-Aug-25 17:33N 59°46' E 005°30'0 0.0
2015-Aug-25 16:33N 59°46' E 005°30'0 0.0
2015-Aug-25 15:33N 59°46' E 005°30'0 0.0
2015-Aug-25 14:33N 59°46' E 005°30'0 0.0
2015-Aug-25 13:33N 59°46' E 005°30'0 0.0
2015-Aug-25 12:33N 59°46' E 005°30'0 0.0
2015-Aug-25 11:33N 59°46' E 005°30'0 0.0
2015-Aug-25 10:33N 59°46' E 005°30'0 0.0
2015-Aug-25 09:33N 59°46' E 005°30'0 0.0
2015-Aug-25 08:33N 59°46' E 005°30'  

Dump ship's entire track history